Decoded Metar for WBKK (KOTA KINABALU in MALAYSIA) (IATA:BKI) | Meteo·Mobile Aviation Weather
aviador You're here:

WBKK Decoded Metar

KOTA KINABALU in MALAYSIA
Report Time2018-11-20 17:30:00
UTC Time2018-11-20 17:49:06
Flight Rules vfr VFR
WindVRB at 02 kt
Visibility9999 m
Phenomena:N/A
Clouds:Few 014 Hf
Scattered 140 Hf
Broken 270 Hf
Expected CloudBase > 400 ft AGL from Temp-Dew spread
Ceiling27,000 ft
Temp25°C (ISA +10)
Dew Point24°C (94% RH)
QNH1009 hPa
Density Alt1,696 ft
Elevation10 ft
Report Wrong Elevation
Raw Report
WBKK 201730Z VRB02KT 9999 FEW014 SCT140 BKN270 25/24 Q1009
NOSIG=

Extra information for WBKK:More info

Metar Taf Metar & Taf Last 4 Metars F.Rules Stats Wind Profile Meteogram Temp Stats Airport Information Weather charts Add Link Nearby VenuesMetar ALERT Operation Metar Decoded Social comments